sensor_id;sensor_type;location;lat;lon;timestamp;P1;durP1;ratioP1;P2;durP2;ratioP2
76595;SDS011;65485;45.990;18.670;2023-12-20T04:51:15;45.97;;;22.77;;
76595;SDS011;65485;45.990;18.670;2023-12-20T04:54:17;52.97;;;24.40;;
76595;SDS011;65485;45.990;18.670;2023-12-20T04:57:20;74.18;;;33.72;;
76595;SDS011;65485;45.990;18.670;2023-12-20T05:00:22;57.33;;;28.77;;
76595;SDS011;65485;45.990;18.670;2023-12-20T05:03:25;54.88;;;26.33;;
76595;SDS011;65485;45.990;18.670;2023-12-20T05:06:28;58.00;;;30.35;;
76595;SDS011;65485;45.990;18.670;2023-12-20T05:09:31;45.75;;;23.30;;
76595;SDS011;65485;45.990;18.670;2023-12-20T05:12:33;44.13;;;22.40;;
76595;SDS011;65485;45.990;18.670;2023-12-20T05:15:36;46.47;;;22.63;;
76595;SDS011;65485;45.990;18.670;2023-12-20T05:18:39;42.22;;;22.13;;
76595;SDS011;65485;45.990;18.670;2023-12-20T05:21:42;49.30;;;22.95;;
76595;SDS011;65485;45.990;18.670;2023-12-20T05:24:45;55.28;;;26.55;;
76595;SDS011;65485;45.990;18.670;2023-12-20T05:27:47;35.05;;;19.85;;
76595;SDS011;65485;45.990;18.670;2023-12-20T05:30:51;61.55;;;28.88;;
76595;SDS011;65485;45.990;18.670;2023-12-20T05:33:53;69.15;;;33.78;;
76595;SDS011;65485;45.990;18.670;2023-12-20T05:36:57;54.05;;;26.60;;
76595;SDS011;65485;45.990;18.670;2023-12-20T05:40:00;49.03;;;27.20;;
76595;SDS011;65485;45.990;18.670;2023-12-20T05:43:03;48.20;;;26.45;;
76595;SDS011;65485;45.990;18.670;2023-12-20T05:46:06;57.33;;;28.00;;
76595;SDS011;65485;45.990;18.670;2023-12-20T05:49:09;48.85;;;22.63;;
76595;SDS011;65485;45.990;18.670;2023-12-20T05:52:13;37.27;;;19.13;;
76595;SDS011;65485;45.990;18.670;2023-12-20T05:55:15;42.67;;;20.15;;
76595;SDS011;65485;45.990;18.670;2023-12-20T05:58:18;50.35;;;23.73;;
76595;SDS011;65485;45.990;18.670;2023-12-20T06:01:21;38.80;;;22.83;;
76595;SDS011;65485;45.990;18.670;2023-12-20T06:04:24;81.90;;;36.90;;
76595;SDS011;65485;45.990;18.670;2023-12-20T06:07:27;54.03;;;23.92;;
76595;SDS011;65485;45.990;18.670;2023-12-20T06:10:30;62.67;;;29.13;;
76595;SDS011;65485;45.990;18.670;2023-12-20T06:13:32;53.45;;;27.50;;
76595;SDS011;65485;45.990;18.670;2023-12-20T06:16:35;59.77;;;30.63;;
76595;SDS011;65485;45.990;18.670;2023-12-20T06:19:38;56.67;;;27.73;;
76595;SDS011;65485;45.990;18.670;2023-12-20T06:22:41;48.30;;;24.73;;
76595;SDS011;65485;45.990;18.670;2023-12-20T06:25:43;40.58;;;22.33;;
76595;SDS011;65485;45.990;18.670;2023-12-20T06:28:49;44.83;;;21.07;;
76595;SDS011;65485;45.990;18.670;2023-12-20T06:31:52;50.55;;;24.77;;
76595;SDS011;65485;45.990;18.670;2023-12-20T06:34:54;53.25;;;23.85;;
76595;SDS011;65485;45.990;18.670;2023-12-20T06:37:57;58.33;;;27.48;;
76595;SDS011;65485;45.990;18.670;2023-12-20T06:41:00;45.00;;;25.43;;
76595;SDS011;65485;45.990;18.670;2023-12-20T06:44:03;55.35;;;25.55;;
76595;SDS011;65485;45.990;18.670;2023-12-20T06:47:06;34.33;;;17.50;;
76595;SDS011;65485;45.990;18.670;2023-12-20T06:50:08;49.78;;;21.40;;
76595;SDS011;65485;45.990;18.670;2023-12-20T06:53:11;67.77;;;28.40;;
76595;SDS011;65485;45.990;18.670;2023-12-20T06:56:14;61.95;;;29.58;;
76595;SDS011;65485;45.990;18.670;2023-12-20T06:59:21;46.30;;;21.80;;
76595;SDS011;65485;45.990;18.670;2023-12-20T07:02:26;54.35;;;23.88;;
76595;SDS011;65485;45.990;18.670;2023-12-20T07:05:34;48.78;;;22.98;;
76595;SDS011;65485;45.990;18.670;2023-12-20T07:08:38;38.33;;;19.48;;
76595;SDS011;65485;45.990;18.670;2023-12-20T07:11:42;49.15;;;21.23;;
76595;SDS011;65485;45.990;18.670;2023-12-20T07:14:46;47.30;;;22.08;;
76595;SDS011;65485;45.990;18.670;2023-12-20T07:17:49;43.47;;;21.85;;
76595;SDS011;65485;45.990;18.670;2023-12-20T07:20:52;18.48;;;12.48;;
76595;SDS011;65485;45.990;18.670;2023-12-20T07:23:56;41.67;;;20.38;;
76595;SDS011;65485;45.990;18.670;2023-12-20T07:27:00;63.00;;;31.15;;
76595;SDS011;65485;45.990;18.670;2023-12-20T07:30:03;43.80;;;21.00;;
76595;SDS011;65485;45.990;18.670;2023-12-20T07:33:09;55.17;;;27.90;;
76595;SDS011;65485;45.990;18.670;2023-12-20T07:36:12;66.85;;;28.70;;
76595;SDS011;65485;45.990;18.670;2023-12-20T07:39:15;60.42;;;30.02;;
76595;SDS011;65485;45.990;18.670;2023-12-20T07:42:18;45.87;;;20.77;;
76595;SDS011;65485;45.990;18.670;2023-12-20T07:45:24;39.75;;;22.83;;
76595;SDS011;65485;45.990;18.670;2023-12-20T07:48:27;39.13;;;17.52;;
76595;SDS011;65485;45.990;18.670;2023-12-20T07:52:09;41.03;;;19.67;;
76595;SDS011;65485;45.990;18.670;2023-12-20T07:56:17;38.83;;;19.07;;
76595;SDS011;65485;45.990;18.670;2023-12-20T07:59:21;38.55;;;18.25;;
76595;SDS011;65485;45.990;18.670;2023-12-20T08:02:34;59.10;;;27.38;;
76595;SDS011;65485;45.990;18.670;2023-12-20T08:05:37;30.13;;;15.55;;
76595;SDS011;65485;45.990;18.670;2023-12-20T08:08:42;47.97;;;20.80;;
76595;SDS011;65485;45.990;18.670;2023-12-20T08:11:47;36.30;;;18.67;;
76595;SDS011;65485;45.990;18.670;2023-12-20T08:14:50;39.65;;;20.98;;
76595;SDS011;65485;45.990;18.670;2023-12-20T08:17:54;36.50;;;18.83;;
76595;SDS011;65485;45.990;18.670;2023-12-20T08:21:02;32.75;;;16.95;;
76595;SDS011;65485;45.990;18.670;2023-12-20T08:24:08;49.43;;;23.30;;
76595;SDS011;65485;45.990;18.670;2023-12-20T08:27:11;39.10;;;16.38;;
76595;SDS011;65485;45.990;18.670;2023-12-20T08:30:13;44.25;;;21.65;;
76595;SDS011;65485;45.990;18.670;2023-12-20T08:33:16;48.55;;;22.40;;
76595;SDS011;65485;45.990;18.670;2023-12-20T08:36:28;32.40;;;15.40;;
76595;SDS011;65485;45.990;18.670;2023-12-20T08:39:34;49.38;;;23.73;;
76595;SDS011;65485;45.990;18.670;2023-12-20T08:42:37;47.17;;;23.27;;
76595;SDS011;65485;45.990;18.670;2023-12-20T08:45:40;30.95;;;15.75;;
76595;SDS011;65485;45.990;18.670;2023-12-20T08:48:44;46.93;;;24.00;;
76595;SDS011;65485;45.990;18.670;2023-12-20T08:52:50;42.47;;;22.25;;
76595;SDS011;65485;45.990;18.670;2023-12-20T08:56:13;37.67;;;19.15;;
76595;SDS011;65485;45.990;18.670;2023-12-20T08:59:20;41.53;;;18.77;;
76595;SDS011;65485;45.990;18.670;2023-12-20T09:02:30;37.95;;;16.77;;
76595;SDS011;65485;45.990;18.670;2023-12-20T09:05:32;35.47;;;18.27;;
76595;SDS011;65485;45.990;18.670;2023-12-20T09:08:35;36.38;;;17.63;;
76595;SDS011;65485;45.990;18.670;2023-12-20T09:11:38;42.08;;;22.30;;
76595;SDS011;65485;45.990;18.670;2023-12-20T09:14:41;49.35;;;22.45;;
76595;SDS011;65485;45.990;18.670;2023-12-20T09:17:51;43.70;;;20.70;;
76595;SDS011;65485;45.990;18.670;2023-12-20T09:20:57;40.88;;;18.65;;
76595;SDS011;65485;45.990;18.670;2023-12-20T09:24:05;40.03;;;19.08;;
76595;SDS011;65485;45.990;18.670;2023-12-20T09:27:12;41.92;;;17.42;;
76595;SDS011;65485;45.990;18.670;2023-12-20T09:30:15;36.42;;;16.27;;
76595;SDS011;65485;45.990;18.670;2023-12-20T09:33:28;41.87;;;20.40;;
76595;SDS011;65485;45.990;18.670;2023-12-20T09:36:31;39.92;;;19.25;;
76595;SDS011;65485;45.990;18.670;2023-12-20T09:39:43;38.00;;;17.63;;
76595;SDS011;65485;45.990;18.670;2023-12-20T09:42:56;47.08;;;21.70;;
76595;SDS011;65485;45.990;18.670;2023-12-20T09:46:00;44.05;;;21.48;;
76595;SDS011;65485;45.990;18.670;2023-12-20T09:49:11;39.73;;;20.47;;
76595;SDS011;65485;45.990;18.670;2023-12-20T09:52:15;42.22;;;21.08;;
76595;SDS011;65485;45.990;18.670;2023-12-20T09:55:18;41.05;;;19.42;;
76595;SDS011;65485;45.990;18.670;2023-12-20T09:58:22;50.80;;;22.77;;
76595;SDS011;65485;45.990;18.670;2023-12-20T10:01:25;46.85;;;18.88;;
76595;SDS011;65485;45.990;18.670;2023-12-20T10:04:29;50.13;;;23.03;;
76595;SDS011;65485;45.990;18.670;2023-12-20T10:07:34;52.10;;;21.23;;
76595;SDS011;65485;45.990;18.670;2023-12-20T10:10:38;45.58;;;19.48;;
76595;SDS011;65485;45.990;18.670;2023-12-20T10:13:49;42.30;;;18.92;;
76595;SDS011;65485;45.990;18.670;2023-12-20T10:16:52;44.63;;;20.30;;
76595;SDS011;65485;45.990;18.670;2023-12-20T10:19:55;40.97;;;19.57;;
76595;SDS011;65485;45.990;18.670;2023-12-20T10:22:58;34.87;;;18.97;;
76595;SDS011;65485;45.990;18.670;2023-12-20T10:26:03;37.58;;;17.45;;
76595;SDS011;65485;45.990;18.670;2023-12-20T10:29:14;37.65;;;18.60;;
76595;SDS011;65485;45.990;18.670;2023-12-20T10:32:22;33.60;;;17.52;;
76595;SDS011;65485;45.990;18.670;2023-12-20T10:35:27;42.17;;;20.63;;
76595;SDS011;65485;45.990;18.670;2023-12-20T10:41:59;48.10;;;20.13;;
76595;SDS011;65485;45.990;18.670;2023-12-20T10:45:05;53.20;;;24.08;;
76595;SDS011;65485;45.990;18.670;2023-12-20T10:48:09;42.60;;;19.08;;
76595;SDS011;65485;45.990;18.670;2023-12-20T10:51:24;58.73;;;24.80;;
76595;SDS011;65485;45.990;18.670;2023-12-20T10:54:29;52.23;;;21.90;;
76595;SDS011;65485;45.990;18.670;2023-12-20T10:57:31;59.85;;;24.38;;
76595;SDS011;65485;45.990;18.670;2023-12-20T11:00:37;63.55;;;27.58;;
76595;SDS011;65485;45.990;18.670;2023-12-20T11:03:43;62.45;;;26.88;;
76595;SDS011;65485;45.990;18.670;2023-12-20T11:06:50;63.93;;;26.27;;
76595;SDS011;65485;45.990;18.670;2023-12-20T11:09:58;54.53;;;25.27;;
76595;SDS011;65485;45.990;18.670;2023-12-20T11:13:16;58.40;;;24.40;;
76595;SDS011;65485;45.990;18.670;2023-12-20T11:16:23;65.65;;;27.67;;
76595;SDS011;65485;45.990;18.670;2023-12-20T11:19:28;58.75;;;24.70;;
76595;SDS011;65485;45.990;18.670;2023-12-20T11:22:32;60.80;;;25.33;;
76595;SDS011;65485;45.990;18.670;2023-12-20T11:25:53;56.83;;;25.38;;
76595;SDS011;65485;45.990;18.670;2023-12-20T11:32:38;56.10;;;24.60;;
76595;SDS011;65485;45.990;18.670;2023-12-20T11:35:46;65.80;;;27.15;;
76595;SDS011;65485;45.990;18.670;2023-12-20T11:38:58;49.63;;;25.63;;
76595;SDS011;65485;45.990;18.670;2023-12-20T11:42:23;60.87;;;26.03;;
76595;SDS011;65485;45.990;18.670;2023-12-20T11:45:26;60.47;;;25.80;;
76595;SDS011;65485;45.990;18.670;2023-12-20T11:48:33;67.68;;;27.90;;
76595;SDS011;65485;45.990;18.670;2023-12-20T11:51:40;58.80;;;24.95;;
76595;SDS011;65485;45.990;18.670;2023-12-20T11:54:48;68.57;;;25.30;;
76595;SDS011;65485;45.990;18.670;2023-12-20T11:57:52;59.67;;;25.93;;
76595;SDS011;65485;45.990;18.670;2023-12-20T12:01:06;58.90;;;24.98;;
76595;SDS011;65485;45.990;18.670;2023-12-20T12:04:11;54.38;;;24.10;;
76595;SDS011;65485;45.990;18.670;2023-12-20T12:07:14;53.15;;;23.75;;
76595;SDS011;65485;45.990;18.670;2023-12-20T12:10:17;56.03;;;25.03;;
76595;SDS011;65485;45.990;18.670;2023-12-20T12:13:20;50.67;;;22.67;;
76595;SDS011;65485;45.990;18.670;2023-12-20T12:16:23;48.63;;;21.67;;
76595;SDS011;65485;45.990;18.670;2023-12-20T12:19:26;49.28;;;22.92;;
76595;SDS011;65485;45.990;18.670;2023-12-20T12:22:29;61.50;;;27.33;;
76595;SDS011;65485;45.990;18.670;2023-12-20T12:25:39;47.30;;;23.93;;
76595;SDS011;65485;45.990;18.670;2023-12-20T12:28:47;46.50;;;22.93;;
76595;SDS011;65485;45.990;18.670;2023-12-20T12:31:55;48.72;;;22.30;;
76595;SDS011;65485;45.990;18.670;2023-12-20T12:34:58;49.17;;;20.90;;
76595;SDS011;65485;45.990;18.670;2023-12-20T12:38:02;55.10;;;23.08;;
76595;SDS011;65485;45.990;18.670;2023-12-20T12:41:05;63.30;;;24.00;;
76595;SDS011;65485;45.990;18.670;2023-12-20T12:44:11;58.97;;;26.57;;
76595;SDS011;65485;45.990;18.670;2023-12-20T12:47:19;63.47;;;25.92;;
76595;SDS011;65485;45.990;18.670;2023-12-20T12:50:22;71.43;;;29.75;;
76595;SDS011;65485;45.990;18.670;2023-12-20T12:53:25;79.00;;;28.25;;
76595;SDS011;65485;45.990;18.670;2023-12-20T12:56:29;80.60;;;31.73;;
76595;SDS011;65485;45.990;18.670;2023-12-20T12:59:31;72.27;;;29.80;;
76595;SDS011;65485;45.990;18.670;2023-12-20T13:02:34;78.93;;;29.80;;
76595;SDS011;65485;45.990;18.670;2023-12-20T13:05:37;79.40;;;30.88;;
76595;SDS011;65485;45.990;18.670;2023-12-20T13:08:43;74.35;;;30.23;;
76595;SDS011;65485;45.990;18.670;2023-12-20T13:11:46;63.47;;;26.37;;
76595;SDS011;65485;45.990;18.670;2023-12-20T13:14:49;70.43;;;27.97;;
76595;SDS011;65485;45.990;18.670;2023-12-20T13:17:52;72.57;;;29.55;;
76595;SDS011;65485;45.990;18.670;2023-12-20T13:20:55;66.50;;;27.27;;
76595;SDS011;65485;45.990;18.670;2023-12-20T13:23:58;68.93;;;27.77;;
76595;SDS011;65485;45.990;18.670;2023-12-20T13:27:00;71.67;;;29.40;;
76595;SDS011;65485;45.990;18.670;2023-12-20T13:30:03;72.80;;;28.00;;
76595;SDS011;65485;45.990;18.670;2023-12-20T13:33:06;65.72;;;27.45;;
76595;SDS011;65485;45.990;18.670;2023-12-20T13:36:09;62.50;;;26.83;;
76595;SDS011;65485;45.990;18.670;2023-12-20T13:39:12;65.70;;;28.90;;
76595;SDS011;65485;45.990;18.670;2023-12-20T13:42:16;69.20;;;26.77;;
76595;SDS011;65485;45.990;18.670;2023-12-20T13:45:18;63.65;;;25.27;;
76595;SDS011;65485;45.990;18.670;2023-12-20T13:48:23;61.30;;;26.33;;
76595;SDS011;65485;45.990;18.670;2023-12-20T13:51:26;63.35;;;24.55;;
76595;SDS011;65485;45.990;18.670;2023-12-20T13:54:28;61.53;;;24.70;;
76595;SDS011;65485;45.990;18.670;2023-12-20T13:57:31;54.70;;;23.37;;
76595;SDS011;65485;45.990;18.670;2023-12-20T14:00:39;58.20;;;23.83;;
76595;SDS011;65485;45.990;18.670;2023-12-20T14:03:42;51.55;;;20.98;;
76595;SDS011;65485;45.990;18.670;2023-12-20T14:06:48;53.00;;;22.17;;
76595;SDS011;65485;45.990;18.670;2023-12-20T14:09:51;48.90;;;23.10;;
76595;SDS011;65485;45.990;18.670;2023-12-20T14:12:54;57.03;;;24.23;;
76595;SDS011;65485;45.990;18.670;2023-12-20T14:15:57;65.90;;;28.55;;
76595;SDS011;65485;45.990;18.670;2023-12-20T14:19:01;60.63;;;25.20;;
76595;SDS011;65485;45.990;18.670;2023-12-20T14:22:05;56.97;;;22.88;;
76595;SDS011;65485;45.990;18.670;2023-12-20T14:25:08;54.78;;;23.42;;
76595;SDS011;65485;45.990;18.670;2023-12-20T14:28:13;53.00;;;21.63;;
76595;SDS011;65485;45.990;18.670;2023-12-20T14:31:16;47.80;;;22.10;;
76595;SDS011;65485;45.990;18.670;2023-12-20T14:34:19;43.45;;;21.27;;
76595;SDS011;65485;45.990;18.670;2023-12-20T14:37:22;51.53;;;23.27;;
76595;SDS011;65485;45.990;18.670;2023-12-20T14:40:24;55.38;;;23.10;;
76595;SDS011;65485;45.990;18.670;2023-12-20T14:43:27;56.83;;;23.97;;
76595;SDS011;65485;45.990;18.670;2023-12-20T14:46:30;52.72;;;23.17;;
76595;SDS011;65485;45.990;18.670;2023-12-20T14:49:32;56.30;;;23.05;;
76595;SDS011;65485;45.990;18.670;2023-12-20T14:52:35;56.42;;;22.35;;
76595;SDS011;65485;45.990;18.670;2023-12-20T14:55:39;53.95;;;23.92;;
76595;SDS011;65485;45.990;18.670;2023-12-20T14:58:41;65.83;;;28.23;;
76595;SDS011;65485;45.990;18.670;2023-12-20T15:01:44;63.70;;;25.00;;
76595;SDS011;65485;45.990;18.670;2023-12-20T15:04:47;54.67;;;24.60;;
76595;SDS011;65485;45.990;18.670;2023-12-20T15:07:50;64.47;;;23.95;;
76595;SDS011;65485;45.990;18.670;2023-12-20T15:10:52;53.78;;;22.60;;
76595;SDS011;65485;45.990;18.670;2023-12-20T15:13:55;41.53;;;19.93;;
76595;SDS011;65485;45.990;18.670;2023-12-20T15:16:58;48.78;;;21.85;;
76595;SDS011;65485;45.990;18.670;2023-12-20T15:20:01;50.17;;;23.20;;
76595;SDS011;65485;45.990;18.670;2023-12-20T15:23:04;49.95;;;23.73;;
76595;SDS011;65485;45.990;18.670;2023-12-20T15:26:09;53.53;;;22.33;;
76595;SDS011;65485;45.990;18.670;2023-12-20T15:29:12;52.47;;;23.77;;
76595;SDS011;65485;45.990;18.670;2023-12-20T15:32:15;48.28;;;21.35;;
76595;SDS011;65485;45.990;18.670;2023-12-20T15:35:20;55.60;;;23.73;;
76595;SDS011;65485;45.990;18.670;2023-12-20T15:38:23;49.05;;;21.35;;
76595;SDS011;65485;45.990;18.670;2023-12-20T15:41:26;47.55;;;21.08;;
76595;SDS011;65485;45.990;18.670;2023-12-20T15:44:28;44.47;;;19.80;;
76595;SDS011;65485;45.990;18.670;2023-12-20T15:47:31;42.55;;;19.60;;
76595;SDS011;65485;45.990;18.670;2023-12-20T15:50:34;48.38;;;20.95;;
76595;SDS011;65485;45.990;18.670;2023-12-20T15:53:38;45.67;;;20.73;;
76595;SDS011;65485;45.990;18.670;2023-12-20T15:56:40;46.55;;;21.58;;
76595;SDS011;65485;45.990;18.670;2023-12-20T15:59:43;39.27;;;19.57;;
76595;SDS011;65485;45.990;18.670;2023-12-20T16:02:46;53.17;;;24.02;;
76595;SDS011;65485;45.990;18.670;2023-12-20T16:05:48;44.40;;;22.10;;
76595;SDS011;65485;45.990;18.670;2023-12-20T16:08:51;45.65;;;20.48;;
76595;SDS011;65485;45.990;18.670;2023-12-20T16:11:53;43.20;;;18.73;;
76595;SDS011;65485;45.990;18.670;2023-12-20T16:14:56;40.47;;;20.97;;
76595;SDS011;65485;45.990;18.670;2023-12-20T16:17:59;46.65;;;21.17;;
76595;SDS011;65485;45.990;18.670;2023-12-20T16:21:01;50.47;;;24.38;;
76595;SDS011;65485;45.990;18.670;2023-12-20T16:24:05;52.05;;;26.73;;
76595;SDS011;65485;45.990;18.670;2023-12-20T16:27:08;51.25;;;25.27;;
76595;SDS011;65485;45.990;18.670;2023-12-20T16:30:11;55.33;;;27.10;;
76595;SDS011;65485;45.990;18.670;2023-12-20T16:33:14;51.40;;;25.25;;
76595;SDS011;65485;45.990;18.670;2023-12-20T16:36:17;54.25;;;25.15;;
76595;SDS011;65485;45.990;18.670;2023-12-20T16:39:20;58.45;;;27.30;;
76595;SDS011;65485;45.990;18.670;2023-12-20T16:42:25;53.78;;;25.65;;
76595;SDS011;65485;45.990;18.670;2023-12-20T16:45:28;56.30;;;27.67;;
76595;SDS011;65485;45.990;18.670;2023-12-20T16:48:31;49.97;;;25.98;;
76595;SDS011;65485;45.990;18.670;2023-12-20T16:51:35;53.00;;;25.77;;
76595;SDS011;65485;45.990;18.670;2023-12-20T16:54:38;51.28;;;24.70;;
76595;SDS011;65485;45.990;18.670;2023-12-20T16:57:41;53.03;;;23.87;;
76595;SDS011;65485;45.990;18.670;2023-12-20T17:00:43;60.15;;;29.48;;
76595;SDS011;65485;45.990;18.670;2023-12-20T17:03:46;52.83;;;27.10;;
76595;SDS011;65485;45.990;18.670;2023-12-20T17:06:49;59.13;;;29.35;;
76595;SDS011;65485;45.990;18.670;2023-12-20T17:09:52;62.00;;;29.83;;
76595;SDS011;65485;45.990;18.670;2023-12-20T17:12:55;64.85;;;31.15;;
76595;SDS011;65485;45.990;18.670;2023-12-20T17:15:57;59.17;;;29.38;;
76595;SDS011;65485;45.990;18.670;2023-12-20T17:19:00;53.80;;;27.70;;
76595;SDS011;65485;45.990;18.670;2023-12-20T17:22:03;54.70;;;26.38;;
76595;SDS011;65485;45.990;18.670;2023-12-20T17:25:07;53.07;;;26.43;;
76595;SDS011;65485;45.990;18.670;2023-12-20T17:28:11;49.90;;;23.45;;
76595;SDS011;65485;45.990;18.670;2023-12-20T17:31:13;52.25;;;26.35;;
76595;SDS011;65485;45.990;18.670;2023-12-20T17:34:16;48.00;;;22.52;;
76595;SDS011;65485;45.990;18.670;2023-12-20T17:37:19;49.63;;;25.02;;
76595;SDS011;65485;45.990;18.670;2023-12-20T17:40:22;44.70;;;21.07;;
76595;SDS011;65485;45.990;18.670;2023-12-20T17:43:25;50.17;;;23.00;;
76595;SDS011;65485;45.990;18.670;2023-12-20T17:46:28;49.72;;;27.10;;
76595;SDS011;65485;45.990;18.670;2023-12-20T17:49:31;47.53;;;22.45;;
76595;SDS011;65485;45.990;18.670;2023-12-20T17:52:34;42.35;;;21.77;;
76595;SDS011;65485;45.990;18.670;2023-12-20T17:55:37;40.10;;;19.93;;
76595;SDS011;65485;45.990;18.670;2023-12-20T17:58:40;37.97;;;21.38;;
76595;SDS011;65485;45.990;18.670;2023-12-20T18:01:43;48.28;;;23.27;;
76595;SDS011;65485;45.990;18.670;2023-12-20T18:04:46;36.60;;;18.83;;
76595;SDS011;65485;45.990;18.670;2023-12-20T18:07:49;44.60;;;20.48;;
76595;SDS011;65485;45.990;18.670;2023-12-20T18:10:52;40.60;;;20.87;;
76595;SDS011;65485;45.990;18.670;2023-12-20T18:13:55;44.50;;;22.05;;
76595;SDS011;65485;45.990;18.670;2023-12-20T18:16:58;47.13;;;21.90;;
76595;SDS011;65485;45.990;18.670;2023-12-20T18:20:01;45.38;;;21.15;;
76595;SDS011;65485;45.990;18.670;2023-12-20T18:23:05;49.10;;;22.65;;
76595;SDS011;65485;45.990;18.670;2023-12-20T18:26:08;50.47;;;25.30;;
76595;SDS011;65485;45.990;18.670;2023-12-20T18:29:11;40.85;;;21.15;;
